Time;durP1;ratioP1;P1;durP2;ratioP2;P2;SDS_P1;SDS_P2;PMS_P1;PMS_P2;Temp;Humidity;BMP_temperature;BMP_pressure;BME280_temperature;BME280_humidity;BME280_pressure;Samples;Min_cycle;Max_cycle;Signal;HPM_P1;HPM_P2
2023/07/04 00:00:13;;;;;;;0.70;0.70;;;18.10;99.90;;;;;;4429309;32;20061;-76
2023/07/04 00:02:39;;;;;;;2.90;0.47;;;18.20;99.90;;;;;;4432794;32;20101;-76
2023/07/04 00:05:05;;;;;;;0.40;0.40;;;18.20;99.90;;;;;;4430894;32;20081;-77
2023/07/04 00:07:31;;;;;;;1.65;0.40;;;18.30;99.90;;;;;;4434071;32;20069;-75
2023/07/04 00:09:59;;;;;;;1.15;1.02;;;18.20;99.90;;;;;;4433353;32;20473;-76
2023/07/04 00:12:25;;;;;;;0.52;0.50;;;18.20;99.90;;;;;;4431018;32;20082;-74
2023/07/04 00:14:52;;;;;;;1.37;0.90;;;18.20;99.90;;;;;;4431547;32;20101;-75
2023/07/04 00:17:18;;;;;;;1.40;0.62;;;18.30;99.90;;;;;;4432523;32;20069;-74
2023/07/04 00:19:44;;;;;;;0.50;0.50;;;18.40;99.90;;;;;;4431650;32;20155;-76
2023/07/04 00:22:10;;;;;;;0.47;0.47;;;18.30;99.90;;;;;;4430928;32;20077;-75
2023/07/04 00:24:37;;;;;;;2.40;1.02;;;18.40;99.90;;;;;;4432345;32;20096;-75
2023/07/04 00:27:03;;;;;;;0.50;0.50;;;18.30;99.90;;;;;;4432200;32;20161;-77
2023/07/04 00:29:29;;;;;;;0.35;0.35;;;18.20;99.90;;;;;;4434898;32;20093;-77
2023/07/04 00:31:55;;;;;;;2.40;0.85;;;18.20;99.90;;;;;;4436568;32;20068;-75
2023/07/04 00:34:21;;;;;;;0.37;0.37;;;18.20;99.90;;;;;;4434677;32;20101;-75
2023/07/04 00:36:47;;;;;;;0.57;0.57;;;18.20;99.90;;;;;;4434797;32;20061;-76
2023/07/04 00:39:14;;;;;;;0.40;0.40;;;18.20;99.90;;;;;;4435838;32;20485;-76
2023/07/04 00:41:41;;;;;;;0.75;0.73;;;18.10;99.90;;;;;;4434901;32;20065;-76
2023/07/04 00:44:20;;;;;;;0.40;0.40;;;18.20;99.90;;;;;;4437531;32;20321;-76
2023/07/04 00:46:52;;;;;;;0.50;0.50;;;18.20;99.90;;;;;;4436818;32;20475;-75
2023/07/04 00:49:23;;;;;;;0.62;0.62;;;18.20;99.90;;;;;;4438102;32;20073;-76
2023/07/04 00:52:04;;;;;;;;;;;18.20;99.90;;;;;;4437146;32;20064;-76
2023/07/04 00:54:36;;;;;;;3.33;0.57;;;18.10;99.90;;;;;;4437753;32;19964;-75
2023/07/04 00:57:06;;;;;;;1.87;0.47;;;18.10;99.90;;;;;;4435699;32;20100;-75
2023/07/04 00:59:34;;;;;;;0.45;0.45;;;18.20;99.90;;;;;;4435639;32;20530;-76
2023/07/04 01:02:00;;;;;;;1.25;0.60;;;18.20;99.90;;;;;;4435560;32;20058;-75
2023/07/04 01:04:25;;;;;;;0.85;0.85;;;18.10;99.90;;;;;;4438353;32;20146;-76
2023/07/04 01:07:00;;;;;;;1.37;0.65;;;18.20;99.90;;;;;;4434399;32;20137;-76
2023/07/04 01:09:28;;;;;;;0.40;0.40;;;18.10;99.90;;;;;;4436169;32;20548;-76
2023/07/04 01:11:54;;;;;;;0.40;0.40;;;18.10;99.90;;;;;;4435734;32;20539;-76
2023/07/04 01:14:25;;;;;;;0.40;0.40;;;18.20;99.90;;;;;;4435950;32;20131;-76
2023/07/04 01:16:52;;;;;;;3.40;0.90;;;18.10;99.90;;;;;;4434287;32;20069;-75
2023/07/04 01:19:30;;;;;;;0.30;0.30;;;18.20;99.90;;;;;;4434041;32;20121;-78
2023/07/04 01:22:08;;;;;;;1.73;0.95;;;18.20;99.90;;;;;;4427920;32;20093;-77
2023/07/04 01:24:59;;;;;;;1.02;0.50;;;18.20;99.90;;;;;;4430777;32;20060;-76
2023/07/04 01:27:27;;;;;;;2.78;0.52;;;18.20;99.90;;;;;;4430682;32;20088;-75
2023/07/04 01:29:54;;;;;;;0.43;0.43;;;18.30;99.90;;;;;;4433714;32;20505;-76
2023/07/04 01:32:20;;;;;;;1.70;0.57;;;18.30;99.90;;;;;;4432939;32;20093;-76
2023/07/04 01:34:46;;;;;;;0.50;0.50;;;18.30;99.90;;;;;;4432625;32;20077;-77
2023/07/04 01:37:13;;;;;;;0.30;0.30;;;18.40;99.90;;;;;;4432947;32;20080;-77
2023/07/04 01:39:45;;;;;;;0.70;0.52;;;18.40;99.90;;;;;;4434237;32;20675;-76
2023/07/04 01:42:11;;;;;;;0.77;0.77;;;18.40;99.90;;;;;;4434036;32;20439;-76
2023/07/04 01:44:37;;;;;;;0.43;0.43;;;18.40;99.90;;;;;;4433612;32;20100;-76
2023/07/04 01:47:03;;;;;;;0.50;0.50;;;18.40;99.90;;;;;;4432783;32;20089;-77
2023/07/04 01:49:29;;;;;;;0.57;0.57;;;18.40;99.90;;;;;;4433690;32;20057;-77
2023/07/04 01:51:54;;;;;;;0.30;0.30;;;18.40;99.90;;;;;;4433561;32;20482;-77
2023/07/04 01:54:20;;;;;;;1.65;0.82;;;18.30;99.90;;;;;;4436418;32;20101;-77
2023/07/04 01:56:48;;;;;;;1.27;0.50;;;18.30;99.90;;;;;;4434403;32;20653;-76
2023/07/04 01:59:13;;;;;;;2.05;1.10;;;18.30;99.90;;;;;;4433401;32;20081;-76
2023/07/04 02:01:39;;;;;;;1.30;0.85;;;18.30;99.90;;;;;;4433511;32;20078;-76
2023/07/04 02:04:04;;;;;;;1.02;0.60;;;18.30;99.90;;;;;;4435314;32;20176;-76
2023/07/04 02:06:30;;;;;;;0.40;0.40;;;18.30;99.90;;;;;;4433948;32;20069;-76
2023/07/04 02:08:56;;;;;;;0.85;0.80;;;18.20;99.90;;;;;;4435481;32;20078;-77
2023/07/04 02:11:23;;;;;;;0.43;0.43;;;18.20;99.90;;;;;;4433945;32;20086;-76
2023/07/04 02:13:49;;;;;;;0.30;0.30;;;18.30;99.90;;;;;;4434738;32;20135;-75
2023/07/04 02:16:15;;;;;;;13.70;0.47;;;18.20;99.90;;;;;;4434423;32;20467;-75
2023/07/04 02:18:42;;;;;;;1.35;1.05;;;18.20;99.90;;;;;;4435311;32;20065;-75
2023/07/04 02:21:08;;;;;;;0.77;0.70;;;18.20;99.90;;;;;;4434564;32;20118;-76
2023/07/04 02:23:34;;;;;;;0.40;0.40;;;18.10;99.90;;;;;;4435914;32;20411;-76
2023/07/04 02:25:59;;;;;;;1.15;0.60;;;18.20;99.90;;;;;;4435840;32;21925;-75
2023/07/04 02:28:25;;;;;;;1.23;0.50;;;18.20;99.90;;;;;;4433518;32;20207;-75
2023/07/04 02:30:56;;;;;;;1.40;0.55;;;18.20;99.90;;;;;;4434678;32;20495;-75
2023/07/04 02:33:21;;;;;;;0.30;0.30;;;18.20;99.90;;;;;;4432812;32;20073;-76
2023/07/04 02:35:47;;;;;;;0.80;0.45;;;18.10;99.90;;;;;;4433622;32;20100;-76
2023/07/04 02:38:15;;;;;;;0.60;0.60;;;18.10;99.90;;;;;;4434763;32;20474;-75
2023/07/04 02:40:45;;;;;;;0.93;0.88;;;18.10;99.90;;;;;;4431955;32;20105;-76
2023/07/04 02:43:11;;;;;;;0.40;0.40;;;18.10;99.90;;;;;;4435565;32;20094;-74
2023/07/04 02:45:36;;;;;;;3.30;1.50;;;18.00;99.90;;;;;;4434275;32;20555;-75
2023/07/04 02:48:02;;;;;;;12.40;1.05;;;18.00;99.90;;;;;;4434689;32;20092;-75
2023/07/04 02:50:27;;;;;;;0.40;0.32;;;18.00;99.90;;;;;;4431804;32;20061;-75
2023/07/04 02:52:53;;;;;;;0.47;0.47;;;17.90;99.90;;;;;;4433505;32;20101;-77
2023/07/04 02:55:18;;;;;;;0.43;0.40;;;17.90;99.90;;;;;;4432634;32;20522;-75
2023/07/04 02:57:45;;;;;;;0.68;0.68;;;17.90;99.90;;;;;;4434472;32;20073;-75
2023/07/04 03:00:13;;;;;;;0.85;0.70;;;17.90;99.90;;;;;;4432994;32;20104;-75
2023/07/04 03:02:38;;;;;;;1.12;0.85;;;17.90;99.90;;;;;;4428068;32;20105;-75
2023/07/04 03:05:04;;;;;;;1.10;0.47;;;17.80;99.90;;;;;;4434054;32;20065;-76
2023/07/04 03:07:30;;;;;;;0.85;0.47;;;17.90;99.90;;;;;;4434297;32;20539;-76
2023/07/04 03:09:55;;;;;;;0.52;0.52;;;17.90;99.90;;;;;;4432933;32;20219;-75
2023/07/04 03:12:21;;;;;;;7.57;0.60;;;17.90;99.90;;;;;;4434406;32;20082;-76
2023/07/04 03:14:47;;;;;;;1.12;0.70;;;17.90;99.90;;;;;;4433724;32;20215;-76
2023/07/04 03:17:13;;;;;;;3.92;0.75;;;17.80;99.90;;;;;;4431904;32;20088;-75
2023/07/04 03:19:39;;;;;;;1.52;0.45;;;17.80;99.90;;;;;;4433404;32;20049;-76
2023/07/04 03:22:04;;;;;;;1.30;0.50;;;17.80;99.90;;;;;;4431741;32;20108;-76
2023/07/04 03:24:30;;;;;;;0.57;0.57;;;17.80;99.90;;;;;;4433162;32;20081;-76
2023/07/04 03:26:56;;;;;;;1.23;0.93;;;17.80;99.90;;;;;;4433213;32;20520;-76
2023/07/04 03:29:22;;;;;;;19.55;0.75;;;17.70;99.90;;;;;;4431645;32;20135;-76
2023/07/04 03:31:47;;;;;;;0.65;0.65;;;17.70;99.90;;;;;;4431821;32;20140;-76
2023/07/04 03:34:14;;;;;;;1.20;0.25;;;17.60;99.90;;;;;;4432579;32;20069;-75
2023/07/04 03:36:39;;;;;;;0.28;0.28;;;17.50;99.90;;;;;;4431120;32;20148;-76
2023/07/04 03:39:05;;;;;;;15.35;0.70;;;17.50;99.90;;;;;;4433586;32;20113;-75
2023/07/04 03:41:31;;;;;;;0.47;0.45;;;17.50;99.90;;;;;;4431421;32;20094;-75
2023/07/04 03:43:57;;;;;;;1.85;1.40;;;17.50;99.90;;;;;;4432264;32;20510;-75
2023/07/04 03:46:22;;;;;;;5.70;0.90;;;17.50;99.90;;;;;;4432389;32;20105;-75
2023/07/04 03:48:49;;;;;;;0.30;0.30;;;17.50;99.90;;;;;;4434979;32;20076;-75
2023/07/04 03:51:15;;;;;;;0.60;0.50;;;17.60;99.90;;;;;;4432090;32;20195;-76
2023/07/04 03:53:40;;;;;;;0.73;0.60;;;17.50;99.90;;;;;;4432421;32;20511;-76
2023/07/04 03:56:06;;;;;;;0.30;0.30;;;17.50;99.90;;;;;;4432835;32;20097;-75
2023/07/04 03:58:32;;;;;;;0.60;0.60;;;17.50;99.90;;;;;;4433159;32;20069;-75
2023/07/04 04:01:01;;;;;;;0.40;0.40;;;17.50;99.90;;;;;;4434900;32;20099;-75
2023/07/04 04:03:27;;;;;;;0.40;0.40;;;17.40;99.90;;;;;;4432698;32;20541;-74
2023/07/04 04:05:53;;;;;;;1.05;0.77;;;17.40;99.90;;;;;;4432518;32;20084;-75
2023/07/04 04:08:19;;;;;;;0.40;0.40;;;17.40;99.90;;;;;;4433482;32;20084;-76
2023/07/04 04:10:45;;;;;;;1.05;0.93;;;17.50;99.90;;;;;;4432074;32;21344;-77
2023/07/04 04:13:10;;;;;;;0.45;0.37;;;17.40;99.90;;;;;;4432262;32;20089;-76
2023/07/04 04:15:36;;;;;;;0.60;0.60;;;17.40;99.90;;;;;;4429809;32;20101;-77
2023/07/04 04:18:02;;;;;;;0.40;0.40;;;17.40;99.90;;;;;;4426480;32;20069;-75
2023/07/04 04:20:29;;;;;;;0.30;0.30;;;17.40;99.90;;;;;;4431999;32;20074;-74
2023/07/04 04:22:54;;;;;;;0.40;0.40;;;17.30;99.90;;;;;;4428043;32;20417;-76
2023/07/04 04:25:20;;;;;;;0.35;0.35;;;17.40;99.90;;;;;;4432082;32;20481;-76
2023/07/04 04:27:46;;;;;;;1.65;0.73;;;17.40;99.90;;;;;;4433143;32;20080;-76
2023/07/04 04:30:13;;;;;;;1.65;1.25;;;17.30;99.90;;;;;;4434412;32;20490;-76
2023/07/04 04:35:08;;;;;;;0.40;0.40;;;17.40;99.90;;;;;;4432030;32;20795;-76
2023/07/04 04:37:34;;;;;;;5.82;0.75;;;17.40;99.90;;;;;;4432318;32;20464;-76
2023/07/04 04:40:00;;;;;;;0.57;0.47;;;17.50;99.90;;;;;;4431899;32;20100;-76
2023/07/04 04:42:27;;;;;;;1.60;0.80;;;17.50;99.90;;;;;;4430610;32;20074;-76
2023/07/04 04:44:53;;;;;;;1.90;1.25;;;17.40;99.90;;;;;;4431752;32;20520;-76
2023/07/04 04:47:22;;;;;;;2.05;0.73;;;17.40;99.90;;;;;;4434075;32;20097;-77
2023/07/04 04:49:47;;;;;;;0.80;0.80;;;17.40;99.90;;;;;;4434371;32;20123;-77
2023/07/04 04:52:13;;;;;;;0.52;0.45;;;17.40;99.90;;;;;;4431411;32;20513;-76
2023/07/04 04:54:39;;;;;;;0.43;0.43;;;17.40;99.90;;;;;;4430826;32;20085;-76
2023/07/04 04:57:08;;;;;;;0.30;0.30;;;17.50;99.90;;;;;;4432080;32;20196;-74
2023/07/04 04:59:33;;;;;;;3.78;1.12;;;17.50;99.90;;;;;;4432263;32;20545;-74
2023/07/04 05:02:00;;;;;;;0.40;0.40;;;17.60;99.90;;;;;;4427985;32;20080;-76
2023/07/04 05:04:26;;;;;;;0.88;0.77;;;17.70;99.90;;;;;;4431243;32;21607;-75
2023/07/04 05:06:51;;;;;;;1.27;0.85;;;17.80;99.90;;;;;;4429833;32;20148;-74
2023/07/04 05:09:17;;;;;;;0.62;0.62;;;17.90;99.90;;;;;;4432086;32;20248;-74
2023/07/04 05:11:42;;;;;;;0.65;0.65;;;17.90;99.90;;;;;;4430842;32;20573;-75
2023/07/04 05:14:12;;;;;;;0.60;0.60;;;17.90;99.90;;;;;;4432212;32;20081;-76
2023/07/04 05:16:37;;;;;;;1.45;0.40;;;18.00;99.90;;;;;;4438356;32;20579;-77
2023/07/04 05:19:03;;;;;;;0.70;0.70;;;18.00;99.90;;;;;;4428660;32;20120;-76
2023/07/04 05:21:28;;;;;;;0.60;0.60;;;18.00;99.90;;;;;;4432872;32;20521;-76
2023/07/04 05:23:54;;;;;;;0.80;0.80;;;17.90;99.90;;;;;;4435521;32;20073;-75
2023/07/04 05:26:23;;;;;;;0.30;0.30;;;17.80;99.90;;;;;;4424975;32;20097;-76
2023/07/04 05:28:52;;;;;;;0.40;0.40;;;17.80;99.90;;;;;;4430024;32;20118;-77
2023/07/04 05:31:21;;;;;;;0.60;0.60;;;17.80;99.90;;;;;;4416017;32;20243;-76
2023/07/04 05:33:48;;;;;;;0.43;0.43;;;17.80;99.90;;;;;;4433443;32;20068;-77
2023/07/04 05:36:18;;;;;;;0.40;0.40;;;17.90;99.90;;;;;;4431059;32;20116;-76
2023/07/04 05:38:53;;;;;;;3.12;1.30;;;17.90;99.90;;;;;;4429003;32;20093;-75
2023/07/04 05:41:23;;;;;;;2.08;0.55;;;18.00;99.90;;;;;;4432079;32;20085;-76
2023/07/04 05:43:49;;;;;;;0.68;0.68;;;17.90;99.90;;;;;;4433587;32;20101;-75
2023/07/04 05:46:16;;;;;;;1.65;0.75;;;18.00;99.90;;;;;;4432842;32;20528;-76
2023/07/04 05:48:43;;;;;;;0.40;0.40;;;17.90;99.90;;;;;;4435254;32;20508;-76
2023/07/04 05:51:12;;;;;;;0.93;0.80;;;18.00;99.90;;;;;;4424440;32;20883;-75
2023/07/04 05:53:40;;;;;;;1.45;0.60;;;18.00;99.90;;;;;;4433566;32;20074;-76
2023/07/04 05:56:16;;;;;;;0.40;0.40;;;18.00;99.90;;;;;;4434132;32;20585;-76
2023/07/04 05:58:44;;;;;;;0.30;0.30;;;18.00;99.90;;;;;;4434588;32;20402;-76
2023/07/04 06:01:13;;;;;;;0.62;0.62;;;18.10;99.90;;;;;;4430400;32;20139;-76
2023/07/04 06:03:39;;;;;;;0.75;0.60;;;18.10;99.90;;;;;;4434106;32;20109;-75
2023/07/04 06:06:06;;;;;;;0.65;0.55;;;18.10;99.90;;;;;;4434670;32;20115;-76
2023/07/04 06:08:33;;;;;;;0.47;0.47;;;18.10;99.90;;;;;;4433044;32;20112;-77
2023/07/04 06:11:02;;;;;;;0.60;0.60;;;18.00;99.90;;;;;;4434058;32;20453;-76
2023/07/04 06:13:28;;;;;;;0.30;0.30;;;18.00;99.90;;;;;;4435574;32;20077;-76
2023/07/04 06:15:54;;;;;;;4.47;1.95;;;18.00;99.90;;;;;;4431425;32;20562;-77
2023/07/04 06:18:20;;;;;;;0.40;0.40;;;18.10;99.90;;;;;;4431161;32;20080;-76
2023/07/04 06:20:45;;;;;;;0.50;0.50;;;18.20;99.90;;;;;;4430942;32;20084;-76
2023/07/04 06:23:11;;;;;;;0.45;0.45;;;18.20;99.90;;;;;;4431972;32;20090;-78
2023/07/04 06:25:36;;;;;;;0.40;0.40;;;18.30;99.90;;;;;;4427180;32;20086;-76
2023/07/04 06:28:02;;;;;;;0.52;0.52;;;18.20;99.90;;;;;;4432313;32;20088;-77
2023/07/04 06:30:30;;;;;;;0.57;0.57;;;18.20;99.90;;;;;;4433530;32;20078;-77
2023/07/04 06:32:56;;;;;;;2.53;0.75;;;18.20;99.90;;;;;;4430622;32;20101;-77
2023/07/04 06:35:21;;;;;;;2.83;0.75;;;18.30;99.90;;;;;;4435178;32;20110;-77
2023/07/04 06:37:47;;;;;;;0.50;0.50;;;18.30;99.90;;;;;;4437944;32;20496;-76
2023/07/04 06:40:13;;;;;;;0.32;0.32;;;18.30;99.90;;;;;;4434944;32;21224;-75
2023/07/04 06:42:38;;;;;;;2.20;1.02;;;18.30;99.90;;;;;;4431011;32;20104;-76
2023/07/04 06:45:04;;;;;;;0.35;0.35;;;18.40;99.90;;;;;;4434830;32;20434;-75
2023/07/04 06:47:30;;;;;;;14.90;0.68;;;18.40;99.90;;;;;;4434410;32;20089;-75
2023/07/04 06:50:01;;;;;;;1.00;0.95;;;18.50;99.90;;;;;;4431719;32;20065;-76
2023/07/04 06:52:27;;;;;;;2.50;1.12;;;18.60;99.90;;;;;;4430960;32;20093;-74
2023/07/04 06:54:52;;;;;;;0.30;0.30;;;18.60;99.90;;;;;;4433502;32;20072;-76
2023/07/04 06:57:19;;;;;;;0.47;0.47;;;18.60;99.90;;;;;;4432414;32;20069;-76
2023/07/04 06:59:45;;;;;;;0.43;0.43;;;18.70;99.90;;;;;;4432374;32;20548;-76
2023/07/04 07:02:13;;;;;;;0.62;0.62;;;18.60;99.90;;;;;;4433348;32;20065;-78
2023/07/04 07:04:39;;;;;;;0.57;0.57;;;18.70;99.90;;;;;;4432081;32;20739;-77
2023/07/04 07:07:08;;;;;;;0.47;0.47;;;18.70;99.90;;;;;;4434502;32;20128;-76
2023/07/04 07:09:36;;;;;;;3.00;1.15;;;18.70;99.90;;;;;;4433397;32;20552;-75
2023/07/04 07:12:02;;;;;;;0.55;0.55;;;18.80;99.90;;;;;;4433440;32;20165;-75
2023/07/04 07:14:29;;;;;;;0.40;0.40;;;18.90;99.90;;;;;;4432343;32;20696;-77
2023/07/04 07:16:56;;;;;;;2.40;1.12;;;18.90;99.90;;;;;;4432594;32;20080;-76
2023/07/04 07:19:23;;;;;;;0.30;0.30;;;18.90;99.90;;;;;;4433188;32;20126;-77
2023/07/04 07:21:49;;;;;;;0.40;0.40;;;18.90;99.90;;;;;;4433580;32;20057;-75
2023/07/04 07:24:15;;;;;;;0.60;0.57;;;18.80;99.90;;;;;;4435538;32;20556;-77
2023/07/04 07:26:41;;;;;;;0.30;0.30;;;18.80;99.90;;;;;;4434281;32;20185;-75
2023/07/04 07:29:07;;;;;;;0.50;0.50;;;18.70;99.90;;;;;;4432765;32;20097;-75
2023/07/04 07:31:32;;;;;;;0.40;0.40;;;18.80;99.90;;;;;;4431835;32;20105;-76
2023/07/04 07:33:58;;;;;;;0.45;0.45;;;18.90;99.90;;;;;;4433905;32;20132;-77
2023/07/04 07:36:31;;;;;;;0.40;0.40;;;18.90;99.90;;;;;;4433423;32;20506;-76
2023/07/04 07:38:57;;;;;;;0.52;0.52;;;19.00;99.90;;;;;;4431411;32;20476;-76
2023/07/04 07:41:29;;;;;;;1.65;1.37;;;19.20;99.90;;;;;;4432133;32;20119;-77
2023/07/04 07:43:55;;;;;;;0.57;0.57;;;19.40;99.90;;;;;;4434772;32;20068;-75
2023/07/04 07:46:21;;;;;;;0.40;0.40;;;19.40;99.90;;;;;;4433211;32;20161;-74
2023/07/04 07:48:48;;;;;;;0.30;0.30;;;19.40;99.90;;;;;;4433881;32;20496;-76
2023/07/04 07:51:14;;;;;;;0.20;0.20;;;19.30;99.90;;;;;;4434343;32;20108;-76
2023/07/04 07:53:42;;;;;;;0.30;0.30;;;19.40;99.90;;;;;;4433061;32;20092;-75
2023/07/04 07:56:11;;;;;;;0.20;0.20;;;19.50;99.90;;;;;;4433871;32;20073;-76
2023/07/04 07:58:37;;;;;;;0.60;0.60;;;19.70;99.90;;;;;;4432749;32;20097;-75
2023/07/04 08:01:13;;;;;;;0.30;0.30;;;19.80;99.90;;;;;;4435298;32;20092;-76
2023/07/04 08:03:40;;;;;;;0.40;0.40;;;19.90;99.90;;;;;;4430930;32;20097;-76
2023/07/04 08:06:05;;;;;;;0.50;0.50;;;20.00;99.90;;;;;;4432084;32;20485;-75
2023/07/04 08:08:31;;;;;;;0.30;0.30;;;20.10;99.90;;;;;;4433733;32;20077;-75
2023/07/04 08:10:57;;;;;;;0.30;0.30;;;20.00;99.90;;;;;;4434096;32;20096;-75
2023/07/04 08:13:23;;;;;;;0.50;0.50;;;20.10;99.90;;;;;;4433887;32;20090;-74
2023/07/04 08:15:56;;;;;;;0.95;0.77;;;20.20;99.90;;;;;;4431527;32;20078;-76
2023/07/04 08:18:22;;;;;;;1.75;0.77;;;20.10;99.90;;;;;;4435516;32;20066;-77
2023/07/04 08:20:56;;;;;;;2.42;1.33;;;20.00;99.90;;;;;;4433371;32;20085;-78
2023/07/04 08:23:23;;;;;;;0.40;0.40;;;19.80;99.90;;;;;;4434071;32;20105;-77
2023/07/04 08:25:48;;;;;;;0.40;0.32;;;20.10;99.90;;;;;;4434202;32;20140;-78
2023/07/04 08:28:15;;;;;;;0.20;0.20;;;20.40;99.90;;;;;;4433801;32;20105;-77
2023/07/04 08:30:41;;;;;;;0.32;0.32;;;20.30;99.90;;;;;;4433937;32;20085;-76
2023/07/04 08:33:07;;;;;;;0.75;0.73;;;20.10;99.90;;;;;;4434252;32;20088;-77
2023/07/04 08:35:32;;;;;;;0.28;0.28;;;20.10;99.90;;;;;;4433323;32;20110;-77
2023/07/04 08:37:58;;;;;;;0.60;0.60;;;20.20;99.90;;;;;;4434515;32;20105;-76
2023/07/04 08:40:25;;;;;;;0.20;0.20;;;20.20;99.40;;;;;;4438125;32;20085;-76
2023/07/04 08:42:53;;;;;;;0.20;0.20;;;20.10;99.60;;;;;;4440139;32;20076;-76
2023/07/04 08:45:26;;;;;;;0.30;0.30;;;20.00;99.90;;;;;;4434487;32;20085;-78
2023/07/04 08:47:54;;;;;;;0.50;0.50;;;20.20;99.90;;;;;;4429932;32;20069;-78
2023/07/04 08:50:26;;;;;;;4.12;1.40;;;20.50;99.90;;;;;;4432514;32;20073;-77
2023/07/04 08:53:01;;;;;;;0.37;0.37;;;20.60;99.10;;;;;;4435831;32;20090;-77
2023/07/04 08:55:28;;;;;;;18.00;0.52;;;20.60;99.40;;;;;;4434190;32;20112;-76
2023/07/04 08:57:57;;;;;;;0.30;0.30;;;20.50;99.00;;;;;;4435404;32;20132;-78
2023/07/04 09:00:35;;;;;;;0.20;0.20;;;20.60;99.00;;;;;;4436394;32;20127;-76
2023/07/04 09:03:41;;;;;;;0.20;0.20;;;20.90;99.00;;;;;;4429330;32;20568;-78
2023/07/04 09:06:31;;;;;;;0.30;0.30;;;20.90;99.20;;;;;;4423965;32;20074;-79
2023/07/04 09:09:21;;;;;;;0.52;0.45;;;20.50;99.10;;;;;;4427865;32;20066;-77
2023/07/04 09:11:48;;;;;;;0.30;0.30;;;20.50;99.60;;;;;;4437839;32;20180;-76
2023/07/04 09:14:29;;;;;;;0.60;0.45;;;20.70;98.80;;;;;;4436611;32;20077;-78
2023/07/04 09:16:57;;;;;;;8.20;1.12;;;20.60;97.80;;;;;;4435305;32;20078;-77
2023/07/04 09:19:23;;;;;;;0.20;0.20;;;20.60;98.20;;;;;;4436622;32;20093;-76
2023/07/04 09:21:48;;;;;;;0.37;0.37;;;20.80;98.10;;;;;;4436926;32;20108;-75
2023/07/04 09:24:14;;;;;;;0.30;0.30;;;20.80;97.60;;;;;;4437356;32;20061;-76
2023/07/04 09:26:44;;;;;;;0.30;0.30;;;20.70;97.50;;;;;;4433865;32;20084;-77
2023/07/04 09:29:12;;;;;;;0.47;0.47;;;20.50;97.50;;;;;;4433274;32;20548;-76
2023/07/04 09:31:40;;;;;;;0.30;0.30;;;20.50;97.20;;;;;;4432607;32;20069;-76
2023/07/04 09:34:11;;;;;;;0.20;0.20;;;20.60;97.20;;;;;;4435433;32;20144;-77
2023/07/04 09:36:39;;;;;;;0.65;0.65;;;20.80;97.50;;;;;;4435403;32;20073;-75
2023/07/04 09:39:08;;;;;;;0.40;0.40;;;20.80;97.30;;;;;;4430730;32;20101;-76
2023/07/04 09:41:36;;;;;;;3.95;1.70;;;20.70;97.50;;;;;;4434546;32;20136;-76
2023/07/04 09:44:26;;;;;;;0.30;0.30;;;20.60;97.30;;;;;;4435493;32;20127;-77
2023/07/04 09:46:54;;;;;;;0.65;0.65;;;20.50;97.60;;;;;;4434719;32;20465;-77
2023/07/04 09:49:36;;;;;;;0.30;0.30;;;20.60;98.00;;;;;;4440622;32;20069;-76
2023/07/04 09:52:05;;;;;;;0.73;0.60;;;20.70;97.00;;;;;;4438923;32;20131;-76
2023/07/04 09:54:34;;;;;;;0.35;0.35;;;21.10;97.30;;;;;;4434828;32;20110;-77
2023/07/04 09:57:17;;;;;;;0.20;0.20;;;21.30;96.30;;;;;;4434706;32;20092;-79
2023/07/04 09:59:42;;;;;;;0.85;0.50;;;21.60;96.70;;;;;;4432604;32;20078;-78
2023/07/04 10:02:17;;;;;;;0.30;0.30;;;21.80;96.30;;;;;;4436024;32;20101;-78
2023/07/04 10:04:45;;;;;;;0.40;0.40;;;21.80;95.60;;;;;;4435429;32;20517;-77
2023/07/04 10:07:13;;;;;;;0.30;0.30;;;21.80;95.60;;;;;;4436559;32;20093;-77
2023/07/04 10:09:57;;;;;;;0.85;0.70;;;21.90;94.50;;;;;;4438190;32;20245;-77
2023/07/04 10:12:24;;;;;;;0.88;0.50;;;21.90;94.60;;;;;;4435091;32;20508;-79
2023/07/04 10:14:53;;;;;;;0.40;0.40;;;21.90;95.40;;;;;;4438681;32;20061;-77
2023/07/04 10:17:22;;;;;;;0.20;0.20;;;22.30;95.40;;;;;;4428826;32;20081;-77
2023/07/04 10:19:50;;;;;;;0.30;0.30;;;22.50;94.60;;;;;;4435101;32;20077;-76
2023/07/04 10:22:25;;;;;;;5.80;0.90;;;22.40;94.30;;;;;;4427462;32;20129;-76
2023/07/04 10:24:51;;;;;;;0.15;0.15;;;22.40;94.70;;;;;;4434041;32;20061;-78
2023/07/04 10:27:19;;;;;;;2.05;0.50;;;22.30;94.80;;;;;;4440500;32;20073;-76
2023/07/04 10:29:54;;;;;;;0.32;0.32;;;22.10;94.90;;;;;;4435649;32;20077;-76
2023/07/04 10:32:21;;;;;;;2.10;0.77;;;22.00;94.60;;;;;;4435886;32;20598;-76
2023/07/04 10:34:48;;;;;;;0.30;0.30;;;22.00;94.70;;;;;;4435888;32;20140;-77
2023/07/04 10:37:34;;;;;;;0.40;0.40;;;21.80;95.00;;;;;;4434484;32;20511;-76
2023/07/04 10:40:02;;;;;;;0.20;0.20;;;21.80;95.00;;;;;;4434511;32;20768;-78
2023/07/04 10:42:36;;;;;;;0.20;0.20;;;21.90;95.20;;;;;;4433068;32;20077;-77
2023/07/04 10:45:04;;;;;;;0.73;0.47;;;21.90;95.10;;;;;;4438834;32;20076;-76
2023/07/04 10:47:34;;;;;;;1.27;0.65;;;21.80;95.30;;;;;;4433140;32;20093;-76
2023/07/04 10:50:07;;;;;;;0.30;0.30;;;21.50;95.30;;;;;;4437554;32;20060;-76
2023/07/04 10:52:35;;;;;;;0.30;0.30;;;21.30;95.90;;;;;;4437999;32;20096;-76
2023/07/04 10:55:02;;;;;;;0.73;0.35;;;21.10;96.00;;;;;;4434358;32;21165;-77
2023/07/04 10:57:35;;;;;;;0.20;0.20;;;20.90;96.10;;;;;;4431805;32;20667;-76
2023/07/04 11:00:10;;;;;;;1.23;0.68;;;20.90;96.40;;;;;;4431786;32;20082;-77
2023/07/04 11:02:42;;;;;;;0.20;0.20;;;20.70;96.70;;;;;;4433570;32;20064;-76
2023/07/04 11:05:14;;;;;;;0.40;0.40;;;20.90;96.90;;;;;;4434250;32;20090;-76
2023/07/04 11:07:43;;;;;;;0.30;0.30;;;21.10;96.70;;;;;;4433958;32;20081;-76
2023/07/04 11:10:12;;;;;;;0.25;0.25;;;21.20;96.80;;;;;;4433758;32;20085;-77
2023/07/04 11:12:39;;;;;;;0.20;0.20;;;21.30;97.00;;;;;;4433305;32;20159;-77
2023/07/04 11:15:18;;;;;;;0.20;0.20;;;21.60;96.30;;;;;;4433870;32;20140;-78
2023/07/04 11:17:45;;;;;;;0.30;0.28;;;21.70;96.10;;;;;;4433986;32;20492;-76
2023/07/04 11:20:18;;;;;;;0.32;0.32;;;21.60;96.60;;;;;;4432781;32;20148;-76
2023/07/04 11:22:55;;;;;;;0.30;0.30;;;21.70;96.50;;;;;;4435872;32;20152;-77
2023/07/04 11:25:36;;;;;;;0.70;0.70;;;21.60;96.70;;;;;;4434183;32;20102;-75
2023/07/04 11:28:14;;;;;;;0.40;0.40;;;21.30;96.50;;;;;;4435190;32;20191;-75
2023/07/04 11:30:42;;;;;;;0.65;0.65;;;21.00;96.60;;;;;;4431337;32;20456;-77
2023/07/04 11:33:08;;;;;;;0.30;0.30;;;20.90;96.90;;;;;;4431152;32;20085;-78
2023/07/04 11:35:36;;;;;;;0.30;0.30;;;21.00;97.50;;;;;;4437244;32;20117;-77
2023/07/04 11:38:05;;;;;;;0.40;0.40;;;21.10;97.10;;;;;;4433347;32;20068;-76
2023/07/04 11:40:51;;;;;;;0.35;0.35;;;21.00;97.40;;;;;;4434457;32;20102;-77
2023/07/04 11:43:28;;;;;;;0.35;0.35;;;20.80;97.20;;;;;;4434772;32;20084;-78
2023/07/04 11:45:55;;;;;;;0.30;0.30;;;20.80;97.70;;;;;;4433175;32;89011;-77
2023/07/04 11:48:22;;;;;;;0.57;0.57;;;20.80;97.80;;;;;;4432465;32;20466;-78
2023/07/04 11:50:52;;;;;;;1.17;0.95;;;21.00;97.80;;;;;;4432725;32;20101;-77
2023/07/04 11:53:24;;;;;;;0.30;0.30;;;21.00;97.40;;;;;;4433695;32;20089;-77
2023/07/04 11:56:14;;;;;;;0.65;0.62;;;21.30;97.40;;;;;;4432655;32;20089;-76
2023/07/04 11:58:40;;;;;;;0.30;0.30;;;21.70;96.40;;;;;;4432072;32;20449;-76
2023/07/04 12:01:06;;;;;;;0.30;0.30;;;22.40;96.40;;;;;;4433102;32;20551;-78
2023/07/04 12:03:37;;;;;;;0.43;0.43;;;23.00;94.40;;;;;;4432150;32;20065;-77
2023/07/04 12:06:04;;;;;;;0.30;0.30;;;23.40;93.90;;;;;;4432045;32;20121;-77
2023/07/04 12:08:37;;;;;;;0.50;0.50;;;23.10;94.40;;;;;;4430762;32;20088;-77
2023/07/04 12:11:07;;;;;;;0.73;0.40;;;22.60;94.50;;;;;;4431620;32;20171;-76
2023/07/04 12:13:36;;;;;;;0.40;0.40;;;22.40;94.80;;;;;;4434809;32;20065;-77
2023/07/04 12:16:03;;;;;;;0.25;0.25;;;22.40;94.90;;;;;;4433732;32;20532;-76
2023/07/04 12:18:34;;;;;;;0.50;0.50;;;23.20;94.30;;;;;;4433951;32;20066;-77
2023/07/04 12:21:04;;;;;;;0.55;0.55;;;23.70;93.10;;;;;;4433133;32;20085;-78
2023/07/04 12:23:31;;;;;;;0.32;0.30;;;23.90;92.90;;;;;;4435440;32;20096;-77
2023/07/04 12:26:03;;;;;;;0.30;0.30;;;24.10;93.30;;;;;;4435178;32;20392;-74
2023/07/04 12:28:30;;;;;;;1.08;0.52;;;24.10;93.40;;;;;;4437455;32;20061;-76
2023/07/04 12:30:59;;;;;;;0.20;0.20;;;24.60;93.20;;;;;;4438100;32;20367;-77
2023/07/04 12:33:29;;;;;;;0.20;0.20;;;25.50;92.50;;;;;;4433581;32;20077;-76
2023/07/04 12:36:00;;;;;;;0.20;0.20;;;26.20;90.40;;;;;;4428140;32;20077;-77
2023/07/04 12:38:27;;;;;;;0.25;0.25;;;26.20;90.60;;;;;;4432726;32;20241;-77
2023/07/04 12:40:54;;;;;;;3.20;0.40;;;26.40;89.30;;;;;;4433446;32;20256;-78
2023/07/04 12:43:21;;;;;;;0.10;0.10;;;26.20;89.30;;;;;;4430558;32;20093;-76
2023/07/04 12:45:47;;;;;;;9.32;1.37;;;26.10;90.20;;;;;;4434458;32;20139;-75
2023/07/04 12:48:14;;;;;;;0.10;0.10;;;26.20;89.20;;;;;;4433588;32;20090;-77
2023/07/04 12:50:47;;;;;;;0.68;0.30;;;26.40;90.00;;;;;;4434160;32;20684;-77
2023/07/04 12:53:14;;;;;;;0.20;0.20;;;26.90;87.50;;;;;;4434729;32;20121;-77
2023/07/04 12:55:41;;;;;;;0.25;0.25;;;26.70;87.80;;;;;;4433303;32;20061;-76